map of RME home
RME - Airport
Location
City:  Rome, New York, United States
Name:Griffiss International Airport
ICAO:KRME
IATA:RME
FAA LID:RME

Details
Type:Airport (Part 139 Class IV)
Use:Public/Civil
Latitude:4314'02"N (43.233806)
Longitude:7524'25"W (-75.407027)
Datum:WGS 1984
Elevation:503 ft (153 m)
Variation:12.79W (WMM2015 magnetic declination)
0.04 annual change
Runways:1
Longest:11821 × 200 ft (3603 × 61 m), paved

Time
Time Zone:UTC-5 (DST-4)
Local Time:

Weather
METAR:KRME 260253Z AUTO 31004KT 7SM FEW022 SCT036 00/00 A2999 RMK AO2 SLP158 T00000000 53017
TAF:KRME 252324Z 2600/2624 29007KT P6SM SCT250
FM261400 28011KT P6SM FEW150 SCT250
FM261900 29012G19KT P6SM SKC

Related Locations
Nearby:
Farthest:MQZ: 11579 mi / 18635 km
Margaret River [Margaret River Airport], WA, AU

Find:

   beyond  
but within

Other Information
Maps:
NOTAMs:
Links:
Sources:

  
flag of United States
flag of New York
  

Airport Diagram

Airport diagram for RME

Airport diagram PDF

Sectional Chart

Flight Planning
at skyvector.com

Satellite Image

Google Maps Satellite view

 

Copyright © 2004-2018 Karl L. Swartz. All rights reserved.
The Great Circle Mapper name and logo are trademarks of the Great Circle Mapper.
All other trademarks mentioned herein belong to their respective owners.
Please see credits for attibutions and further copyright information.

  Follow gcmap on Facebook Follow gcmap on Twitter Follow gcmap on Google+ GCmap on LinkedIn

hCard Microformat

Geo Microformat